.
WxDataArchive / Data Records for 2013-08-06
2013-08-05 August 2013 2013-08-07

Data Records for Tuesday, 06 August 2013

Time	Temp	Chill	HIndex	Humid	Dewpt	 Wind 	HiWind	WindDir	Rain 	Barom 
-----	----	-----	------	-----	-----	------	------	-------	-----	----- 
00:00	67.9	67.9	67.9	78	60.8	0	0	---	0.00	29.945 
00:05	67.9	67.9	67.9	78	60.8	0	0	---	0.00	29.945 
00:10	67.8	67.8	67.8	78	60.7	0	0	---	0.00	29.945 
00:15	67.8	67.8	67.8	79	61.0	0	0	---	0.00	29.942 
00:20	67.6	67.6	67.6	79	60.8	0	0	---	0.00	29.942 
00:25	67.6	67.6	67.6	79	60.8	0	0	---	0.00	29.942 
00:30	67.6	67.6	67.6	79	60.8	0	1	338	0.00	29.941 
00:35	67.4	67.4	67.4	80	61.0	0	0	---	0.00	29.941 
00:40	67.4	67.4	67.4	80	61.0	0	0	---	0.00	29.941 
00:45	67.4	67.4	67.4	81	61.4	0	0	---	0.00	29.939 
00:50	67.3	67.3	67.3	81	61.3	0	0	---	0.00	29.939 
00:55	67.3	67.3	67.3	81	61.3	0	0	---	0.00	29.939 
01:00	67.1	67.1	67.1	81	61.1	0	0	---	0.00	29.937 
01:05	66.9	66.9	66.9	81	60.9	0	1	338	0.00	29.937 
01:10	66.8	66.8	66.8	81	60.8	0	0	---	0.00	29.937 
01:15	66.6	66.6	66.6	81	60.6	0	0	---	0.00	29.932 
01:20	66.4	66.4	66.4	81	60.4	0	0	---	0.00	29.932 
01:25	66.3	66.3	66.3	82	60.6	0	0	---	0.00	29.932 
01:30	66.3	66.3	66.3	82	60.6	0	0	---	0.00	29.935 
01:35	66.3	66.3	66.3	82	60.6	0	0	---	0.00	29.935 
01:40	66.3	66.3	66.3	82	60.6	0	1	338	0.00	29.935 
01:45	66.3	66.3	66.3	82	60.6	0	1	338	0.00	29.930 
01:50	66.1	66.1	66.1	82	60.4	0	0	---	0.00	29.930 
01:55	66.1	66.1	66.1	83	60.8	0	1	338	0.00	29.930 
02:00	66.1	66.1	66.1	83	60.8	0	1	338	0.00	29.923 
02:05	66.1	66.1	66.1	83	60.8	0	0	---	0.00	29.923 
02:10	66.1	66.1	66.1	83	60.8	0	0	---	0.00	29.923 
02:15	66.1	66.1	66.1	83	60.8	0	0	---	0.00	29.928 
02:20	66.0	66.0	66.0	83	60.7	0	0	---	0.00	29.928 
02:25	66.1	66.1	66.1	83	60.8	0	0	---	0.00	29.928 
02:30	66.1	66.1	66.1	83	60.8	0	0	---	0.00	29.925 
02:35	66.1	66.1	66.1	83	60.8	0	0	---	0.00	29.925 
02:40	66.0	66.0	66.0	83	60.7	0	0	---	0.00	29.925 
02:45	66.0	66.0	66.0	83	60.7	0	0	---	0.00	29.922 
02:50	66.0	66.0	66.0	83	60.7	0	1	338	0.00	29.922 
02:55	66.0	66.0	66.0	84	61.0	0	1	338	0.00	29.922 
03:00	66.0	66.0	66.0	84	61.0	0	0	---	0.00	29.923 
03:05	65.8	65.8	65.8	84	60.8	0	1	338	0.00	29.923 
03:10	65.8	65.8	65.8	84	60.8	0	1	338	0.00	29.923 
03:15	65.8	65.8	65.8	84	60.8	0	0	---	0.00	29.920 
03:20	65.8	65.8	65.8	84	60.8	0	1	338	0.00	29.920 
03:25	65.6	65.6	65.6	84	60.6	0	1	338	0.00	29.920 
03:30	65.6	65.6	65.6	84	60.6	0	0	---	0.00	29.922 
03:35	65.6	65.6	65.6	84	60.6	0	0	---	0.00	29.922 
03:40	65.6	65.6	65.6	84	60.6	0	0	---	0.00	29.922 
03:45	65.5	65.5	65.5	84	60.5	0	0	---	0.00	29.923 
03:50	65.3	65.3	65.3	84	60.3	0	1	338	0.00	29.923 
03:55	65.3	65.3	65.3	84	60.3	0	0	---	0.00	29.923 
04:00	65.2	65.2	65.2	84	60.2	0	0	---	0.00	29.924 
04:05	65.2	65.2	65.2	84	60.2	0	1	338	0.00	29.924 
04:10	65.2	65.2	65.2	84	60.2	0	1	338	0.00	29.924 
04:15	65.0	65.0	65.0	83	59.7	0	1	338	0.00	29.919 
04:20	65.2	65.2	65.2	83	59.9	0	1	338	0.00	29.919 
04:25	65.2	65.2	65.2	82	59.6	0	1	338	0.00	29.919 
04:30	65.3	65.3	65.3	82	59.7	0	1	338	0.00	29.913 
04:35	65.3	65.3	65.3	82	59.7	0	2	338	0.00	29.913 
04:40	65.2	65.2	65.2	82	59.6	0	1	338	0.00	29.913 
04:45	65.2	65.2	65.2	81	59.2	0	2	338	0.00	29.910 
04:50	65.3	65.3	65.3	81	59.3	0	2	112	0.00	29.910 
04:55	65.3	65.3	65.3	81	59.3	0	1	135	0.00	29.910 
05:00	65.3	65.3	65.3	80	59.0	0	1	135	0.00	29.908 
05:05	65.3	65.3	65.3	80	59.0	0	2	135	0.00	29.908 
05:10	65.3	65.3	65.3	80	59.0	0	1	135	0.00	29.908 
05:15	65.3	65.3	65.3	80	59.0	0	1	135	0.00	29.900 
05:20	65.3	65.3	65.3	79	58.6	0	1	135	0.00	29.900 
05:25	65.3	65.3	65.3	79	58.6	0	2	135	0.00	29.900 
05:30	65.3	65.3	65.3	79	58.6	0	1	135	0.00	29.900 
05:35	65.5	65.5	65.5	79	58.8	0	1	135	0.00	29.900 
05:40	65.5	65.5	65.5	78	58.5	0	1	135	0.00	29.900 
05:45	65.5	65.5	65.5	78	58.5	0	0	---	0.00	29.906 
05:50	65.5	65.5	65.5	78	58.5	0	1	135	0.00	29.906 
05:55	65.5	65.5	65.5	78	58.5	0	1	135	0.00	29.906 
06:00	65.5	65.5	65.5	78	58.5	0	1	135	0.00	29.905 
06:05	65.5	65.5	65.5	78	58.5	0	0	---	0.00	29.905 
06:10	65.5	65.5	65.5	78	58.5	0	1	135	0.00	29.905 
06:15	65.5	65.5	65.5	78	58.5	0	1	135	0.00	29.905 
06:20	65.5	65.5	65.5	78	58.5	0	0	---	0.00	29.905 
06:25	65.5	65.5	65.5	77	58.1	0	0	---	0.00	29.905 
06:30	65.5	65.5	65.5	77	58.1	0	0	---	0.00	29.907 
06:35	65.6	65.6	65.6	77	58.2	0	2	135	0.00	29.907 
06:40	65.6	65.6	65.6	77	58.2	0	0	---	0.00	29.907 
06:45	65.6	65.6	65.6	77	58.2	0	0	---	0.00	29.911 
06:50	65.8	65.8	65.8	77	58.4	0	0	---	0.00	29.911 
06:55	65.8	65.8	65.8	77	58.4	0	1	135	0.00	29.911 
07:00	65.8	65.8	65.8	77	58.4	0	1	135	0.00	29.915 
07:05	65.8	65.8	65.8	77	58.4	0	0	---	0.00	29.915 
07:10	65.8	65.8	65.8	77	58.4	0	1	135	0.00	29.915 
07:15	65.8	65.8	65.8	78	58.7	0	1	135	0.00	29.923 
07:20	65.6	65.6	65.6	79	58.9	0	0	---	0.01	29.923 
07:25	65.3	65.3	65.3	81	59.3	0	1	135	0.00	29.923 
07:30	65.0	65.0	65.0	82	59.4	0	1	135	0.00	29.917 
07:35	64.7	64.7	64.7	83	59.4	0	1	135	0.00	29.917 
07:40	64.5	64.5	64.5	84	59.6	0	1	135	0.00	29.917 
07:45	64.3	64.3	64.3	85	59.7	0	0	---	0.00	29.916 
07:50	64.2	64.2	64.2	85	59.6	0	1	135	0.00	29.916 
07:55	64.2	64.2	64.2	86	59.9	0	0	---	0.00	29.916 
08:00	64.2	64.2	64.2	86	59.9	0	1	135	0.00	29.917 
08:05	64.2	64.2	64.2	86	59.9	0	1	135	0.00	29.917 
08:10	64.3	64.3	64.3	86	60.0	0	1	135	0.00	29.917 
08:15	64.5	64.5	64.5	86	60.2	0	1	135	0.00	29.928 
08:20	64.7	64.7	64.7	86	60.4	0	1	135	0.00	29.928 
08:25	64.8	64.8	64.8	85	60.2	0	3	112	0.00	29.928 
08:30	64.8	64.8	64.8	85	60.2	0	1	112	0.00	29.935 
08:35	64.8	64.8	64.8	85	60.2	0	1	112	0.00	29.935 
08:40	65.0	65.0	65.0	85	60.4	0	1	112	0.00	29.935 
08:45	65.0	65.0	65.0	85	60.4	0	0	---	0.00	29.942 
08:50	65.2	65.2	65.2	85	60.6	0	1	112	0.00	29.942 
08:55	65.2	65.2	65.2	85	60.6	0	1	112	0.00	29.942 
09:00	65.3	65.3	65.3	85	60.7	0	1	112	0.00	29.935 
09:05	65.6	65.6	65.6	85	61.0	0	0	---	0.00	29.935 
09:10	65.8	65.8	65.8	85	61.2	0	0	---	0.00	29.935 
09:15	66.0	66.0	66.0	84	61.0	0	1	112	0.00	29.934 
09:20	66.3	66.3	66.3	84	61.3	0	1	112	0.00	29.934 
09:25	66.4	66.4	66.4	83	61.1	0	1	112	0.00	29.934 
09:30	66.6	66.6	66.6	82	60.9	0	1	112	0.00	29.931 
09:35	66.9	66.9	66.9	82	61.2	0	1	112	0.00	29.931 
09:40	67.3	67.3	67.3	82	61.6	0	1	112	0.00	29.931 
09:45	67.8	67.8	67.8	82	62.1	0	1	112	0.00	29.925 
09:50	68.4	68.4	68.4	81	62.3	0	1	112	0.00	29.925 
09:55	68.9	68.9	68.9	79	62.1	0	1	112	0.00	29.925 
10:00	69.1	69.1	69.1	78	61.9	0	1	112	0.00	29.924 
10:05	69.6	69.6	69.6	77	62.1	0	2	112	0.00	29.924 
10:10	70.6	70.6	70.6	77	63.0	0	2	112	0.00	29.924 
10:15	71.3	71.3	71.3	76	63.3	0	3	112	0.00	29.924 
10:20	72.0	72.0	72.0	74	63.2	0	2	112	0.00	29.924 
10:25	72.8	72.8	72.8	72	63.2	0	4	112	0.00	29.924 
10:30	73.7	73.7	73.7	71	63.7	1	3	112	0.00	29.920 
10:35	74.0	74.0	74.0	70	63.6	1	3	22	0.00	29.920 
10:40	74.6	74.6	74.6	69	63.7	0	3	315	0.00	29.920 
10:45	74.6	74.6	74.6	70	64.2	0	2	315	0.00	29.912 
10:50	74.9	74.9	74.9	69	64.0	1	3	338	0.00	29.912 
10:55	75.3	75.3	77.2	67	63.6	1	2	0	0.00	29.912 
11:00	76.0	76.0	77.8	67	64.2	1	3	22	0.00	29.905 
11:05	76.3	76.3	78.1	67	64.5	0	3	225	0.00	29.905 
11:10	76.7	76.7	78.5	65	64.0	1	3	292	0.00	29.905 
11:15	76.8	76.8	78.6	65	64.1	1	3	315	0.00	29.905 
11:20	77.0	77.0	78.8	65	64.3	1	4	45	0.00	29.905 
11:25	77.2	77.2	79.0	67	65.4	1	4	90	0.00	29.905 
11:30	77.0	77.0	78.8	64	63.9	1	4	270	0.00	29.904 
11:35	76.3	76.3	78.1	67	64.5	1	4	270	0.00	29.904 
11:40	76.3	76.3	78.1	67	64.5	1	3	112	0.00	29.904 
11:45	76.1	76.1	77.9	66	63.9	1	4	292	0.00	29.904 
11:50	76.0	76.0	77.7	68	64.7	0	2	292	0.00	29.904 
11:55	75.4	75.4	77.2	68	64.1	1	3	292	0.00	29.904 
12:00	75.3	75.3	77.0	70	64.8	1	2	135	0.00	29.907 
12:05	75.1	75.1	76.8	70	64.6	0	4	45	0.00	29.907 
12:10	74.6	74.6	74.6	70	64.2	0	1	45	0.00	29.907 
12:15	74.0	74.0	74.0	71	64.0	0	3	225	0.00	29.913 
12:20	73.9	73.9	73.9	73	64.7	0	3	225	0.00	29.913 
12:25	73.5	73.5	73.5	73	64.3	1	2	248	0.00	29.913 
12:30	73.3	73.3	73.3	73	64.1	0	1	248	0.00	29.923 
12:35	73.3	73.3	73.3	74	64.5	0	3	248	0.00	29.923 
12:40	73.2	73.2	73.2	74	64.4	1	3	248	0.00	29.923 
12:45	73.0	73.0	73.0	74	64.2	0	2	248	0.00	29.927 
12:50	73.0	73.0	73.0	74	64.2	0	4	248	0.00	29.927 
12:55	73.2	73.2	73.2	75	64.8	0	1	270	0.00	29.927 
13:00	73.7	73.7	73.7	74	64.9	1	2	270	0.00	29.922 
13:05	74.0	74.0	74.0	74	65.2	0	2	270	0.00	29.922 
13:10	74.2	74.2	74.2	73	65.0	0	1	270	0.00	29.922 
13:15	74.4	74.4	74.4	74	65.6	0	1	270	0.00	29.922 
13:20	74.4	74.4	74.4	72	64.8	1	2	270	0.00	29.922 
13:25	74.6	74.6	74.6	74	65.7	1	2	270	0.00	29.922 
13:30	74.9	74.9	74.9	74	66.0	1	2	270	0.00	29.923 
13:35	75.3	75.3	76.7	73	66.0	0	2	315	0.00	29.923 
13:40	75.3	75.3	76.8	72	65.6	1	3	315	0.00	29.923 
13:45	75.3	75.3	76.7	73	66.0	1	4	292	0.00	29.922 
13:50	75.3	75.3	76.8	72	65.6	1	5	292	0.00	29.922 
13:55	75.4	75.4	76.8	73	66.1	0	2	270	0.00	29.922 
14:00	75.8	75.8	77.3	73	66.5	0	2	292	0.00	29.919 
14:05	76.0	76.0	77.6	71	65.9	1	3	292	0.00	29.919 
14:10	76.1	76.1	77.7	72	66.4	1	3	292	0.00	29.919 
14:15	76.0	76.0	77.5	72	66.3	1	4	90	0.00	29.919 
14:20	76.1	76.1	77.6	73	66.8	1	4	90	0.00	29.919 
14:25	76.0	76.0	77.5	73	66.7	1	3	112	0.00	29.919 
14:30	75.8	75.8	77.3	73	66.5	1	3	315	0.00	29.919 
14:35	75.4	75.4	76.8	73	66.1	1	2	22	0.00	29.919 
14:40	75.4	75.4	76.7	74	66.5	0	2	22	0.00	29.919 
14:45	75.6	75.6	77.0	73	66.3	1	4	292	0.00	29.917 
14:50	75.8	75.8	77.3	73	66.5	1	4	292	0.00	29.917 
14:55	75.8	75.8	77.3	73	66.5	1	3	292	0.00	29.917 
15:00	76.1	76.1	77.6	73	66.8	1	2	292	0.00	29.909 
15:05	76.3	76.3	77.8	73	67.0	0	3	292	0.00	29.909 
15:10	76.7	76.7	78.4	72	67.0	0	2	292	0.00	29.909 
15:15	76.8	76.8	78.5	73	67.5	1	3	292	0.00	29.905 
15:20	77.2	77.2	79.0	70	66.6	1	2	112	0.00	29.905 
15:25	77.4	77.4	79.3	70	66.8	1	3	135	0.00	29.905 
15:30	77.2	77.2	79.0	69	66.2	1	3	292	0.00	29.904 
15:35	77.2	77.2	79.0	71	67.0	0	1	292	0.00	29.904 
15:40	77.4	77.4	79.3	71	67.2	0	2	292	0.00	29.904 
15:45	77.6	77.6	79.5	71	67.4	0	3	292	0.00	29.902 
15:50	77.7	77.7	79.6	70	67.1	1	2	292	0.00	29.902 
15:55	77.9	77.9	79.9	69	66.9	0	2	292	0.00	29.902 
16:00	78.6	78.6	80.8	70	68.0	0	2	292	0.00	29.895 
16:05	78.8	78.8	80.9	67	66.9	0	2	292	0.00	29.895 
16:10	79.0	79.0	81.3	68	67.5	0	2	292	0.00	29.895 
16:15	79.0	79.0	81.2	67	67.1	0	2	292	0.00	29.890 
16:20	79.0	79.0	81.2	67	67.1	0	3	292	0.00	29.890 
16:25	78.6	78.6	80.8	69	67.6	0	1	292	0.00	29.890 
16:30	78.3	78.3	80.4	69	67.3	0	2	292	0.00	29.890 
16:35	78.3	78.3	80.4	69	67.3	1	2	292	0.00	29.890 
16:40	78.3	78.3	80.4	69	67.3	0	2	45	0.00	29.890 
16:45	78.1	78.1	80.1	69	67.1	1	3	45	0.00	29.889 
16:50	78.1	78.1	80.2	70	67.5	0	2	68	0.00	29.889 
16:55	78.3	78.3	80.4	70	67.7	1	6	90	0.00	29.889 
17:00	78.5	78.5	80.7	69	67.5	0	2	68	0.00	29.886 
17:05	78.8	78.8	81.1	69	67.7	0	2	292	0.00	29.886 
17:10	79.0	79.0	81.3	68	67.5	1	3	338	0.00	29.886 
17:15	79.0	79.0	81.2	67	67.1	1	3	338	0.00	29.885 
17:20	78.8	78.8	81.1	69	67.7	0	1	22	0.00	29.885 
17:25	78.5	78.5	80.7	70	67.9	0	2	22	0.00	29.885 
17:30	78.1	78.1	80.2	70	67.5	0	1	22	0.00	29.885 
17:35	78.1	78.1	80.2	72	68.3	0	1	22	0.00	29.885 
17:40	77.7	77.7	79.7	71	67.5	0	1	22	0.00	29.885 
17:45	77.7	77.7	79.7	71	67.5	1	6	45	0.00	29.883 
17:50	77.6	77.6	79.5	72	67.8	0	2	90	0.00	29.883 
17:55	77.6	77.6	79.5	72	67.8	1	4	90	0.00	29.883 
18:00	77.4	77.4	79.3	72	67.6	0	3	112	0.00	29.881 
18:05	77.6	77.6	79.5	72	67.8	1	3	68	0.00	29.881 
18:10	77.7	77.7	79.7	72	67.9	0	2	68	0.00	29.881 
18:15	78.3	78.3	80.5	71	68.1	0	2	68	0.00	29.886 
18:20	78.6	78.6	80.8	70	68.0	0	2	68	0.00	29.886 
18:25	78.6	78.6	80.8	70	68.0	1	3	90	0.00	29.886 
18:30	78.6	78.6	80.8	69	67.6	0	3	338	0.00	29.885 
18:35	78.5	78.5	80.8	71	68.3	0	2	45	0.00	29.885 
18:40	78.3	78.3	80.4	70	67.7	0	2	45	0.00	29.885 
18:45	78.1	78.1	80.2	70	67.5	0	2	45	0.00	29.880 
18:50	77.9	77.9	79.9	72	68.1	0	2	45	0.00	29.880 
18:55	77.9	77.9	79.9	72	68.1	0	2	45	0.00	29.880 
19:00	77.9	77.9	79.9	72	68.1	0	1	45	0.00	29.875 
19:05	77.7	77.7	79.7	73	68.3	1	3	45	0.00	29.875 
19:10	77.7	77.7	79.7	71	67.5	0	2	0	0.00	29.875 
19:15	77.7	77.7	79.7	71	67.5	0	3	0	0.00	29.880 
19:20	77.6	77.6	79.5	72	67.8	0	2	22	0.00	29.880 
19:25	77.4	77.4	79.3	71	67.2	0	2	22	0.00	29.880 
19:30	77.4	77.4	79.3	72	67.6	0	1	22	0.00	29.887 
19:35	77.2	77.2	79.0	73	67.9	0	2	22	0.00	29.887 
19:40	77.2	77.2	79.0	73	67.9	0	1	22	0.00	29.887 
19:45	77.0	77.0	78.7	73	67.7	0	1	22	0.00	29.888 
19:50	76.8	76.8	78.5	73	67.5	0	1	22	0.00	29.888 
19:55	76.8	76.8	78.5	73	67.5	0	0	---	0.00	29.888 
20:00	76.8	76.8	78.5	73	67.5	0	0	---	0.00	29.887 
20:05	76.7	76.7	78.3	74	67.8	0	1	22	0.00	29.887 
20:10	76.5	76.5	78.1	74	67.6	0	1	22	0.00	29.887 
20:15	76.3	76.3	77.7	75	67.8	0	0	---	0.00	29.883 
20:20	76.1	76.1	77.5	75	67.6	0	1	22	0.00	29.883 
20:25	76.0	76.0	77.4	75	67.5	0	0	---	0.00	29.883 
20:30	75.6	75.6	76.8	76	67.5	0	0	---	0.00	29.876 
20:35	75.4	75.4	76.5	76	67.3	0	0	---	0.00	29.876 
20:40	75.3	75.3	76.3	77	67.6	0	0	---	0.00	29.876 
20:45	75.1	75.1	76.1	77	67.4	0	0	---	0.00	29.878 
20:50	74.7	74.7	74.7	78	67.4	0	0	---	0.00	29.878 
20:55	74.6	74.6	74.6	78	67.3	0	0	---	0.00	29.878 
21:00	74.4	74.4	74.4	79	67.4	0	0	---	0.00	29.876 
21:05	74.2	74.2	74.2	80	67.6	0	0	---	0.00	29.876 
21:10	73.9	73.9	73.9	80	67.3	0	0	---	0.00	29.876 
21:15	73.7	73.7	73.7	81	67.5	0	0	---	0.00	29.874 
21:20	73.5	73.5	73.5	81	67.3	0	0	---	0.00	29.874 
21:25	73.2	73.2	73.2	82	67.4	0	0	---	0.00	29.874 
21:30	73.0	73.0	73.0	83	67.5	0	0	---	0.00	29.876 
21:35	72.7	72.7	72.7	83	67.2	0	0	---	0.00	29.876 
21:40	72.5	72.5	72.5	83	67.0	0	0	---	0.00	29.876 
21:45	72.1	72.1	72.1	84	67.0	0	0	---	0.00	29.878 
21:50	72.0	72.0	72.0	84	66.9	0	0	---	0.00	29.878 
21:55	71.8	71.8	71.8	85	67.0	0	0	---	0.00	29.878 
22:00	71.6	71.6	71.6	85	66.8	0	0	---	0.00	29.884 
22:05	71.5	71.5	71.5	85	66.7	0	0	---	0.00	29.884 
22:10	71.3	71.3	71.3	86	66.9	0	0	---	0.00	29.884 
22:15	71.1	71.1	71.1	87	67.0	0	0	---	0.00	29.885 
22:20	70.9	70.9	70.9	87	66.8	0	0	---	0.00	29.885 
22:25	70.9	70.9	70.9	87	66.8	0	0	---	0.00	29.885 
22:30	70.8	70.8	70.8	88	67.1	0	0	---	0.00	29.885 
22:35	70.8	70.8	70.8	88	67.1	0	0	---	0.00	29.885 
22:40	70.8	70.8	70.8	88	67.1	0	0	---	0.00	29.885 
22:45	70.8	70.8	70.8	88	67.1	0	0	---	0.00	29.885 
22:50	70.8	70.8	70.8	88	67.1	0	0	---	0.00	29.885 
22:55	70.9	70.9	70.9	88	67.2	0	0	---	0.00	29.885 
23:00	70.9	70.9	70.9	88	67.2	0	0	---	0.00	29.884 
23:05	70.9	70.9	70.9	88	67.2	0	0	---	0.00	29.884 
23:10	70.9	70.9	70.9	88	67.2	0	0	---	0.00	29.884 
23:15	70.9	70.9	70.9	88	67.2	0	0	---	0.00	29.884 
23:20	70.9	70.9	70.9	88	67.2	0	0	---	0.00	29.884 
23:25	71.1	71.1	71.1	88	67.4	0	0	---	0.00	29.884 
23:30	71.1	71.1	71.1	88	67.4	0	0	---	0.00	29.881 
23:35	70.9	70.9	70.9	88	67.2	0	0	---	0.00	29.881 
23:40	70.9	70.9	70.9	88	67.2	0	0	---	0.00	29.881 
23:45	70.9	70.9	70.9	89	67.5	0	0	---	0.00	29.882 
23:50	70.9	70.9	70.9	89	67.5	0	0	---	0.00	29.882 
23:55	70.8	70.8	70.8	89	67.4	0	0	---	0.00	29.882 

CoCoRaHS
IN-AL-39
A2 Web Hosting
Creative Commons License
GoDaddy
search engine by freefind advanced

loaded 2018-11-17 15:02:00 • last modified 2010-11-18 10:43:29
Privacy PolicyDisclaimer
• wx.awcolley.com is powered by PmWiki v.2002016 •
• all content (unless otherwise noted) © 2018 A W Colley